Time;durP1;ratioP1;P1;durP2;ratioP2;P2;SDS_P1;SDS_P2;PMS_P1;PMS_P2;Temp;Humidity;BMP_temperature;BMP_pressure;BME280_temperature;BME280_humidity;BME280_pressure;Samples;Min_cycle;Max_cycle;Signal;HPM_P1;HPM_P2
2021/12/25 00:00:37;;;;;;;1999.90;999.90;;;;;;;-5.18;61.66;100537.72;5030191;27;97872;-70
2021/12/25 00:03:06;;;;;;;1999.90;999.90;;;;;;;-5.22;61.89;100539.94;5022602;27;97434;-71
2021/12/25 00:05:33;;;;;;;1999.90;999.90;;;;;;;-5.23;61.93;100546.81;5027135;27;97665;-71
2021/12/25 00:08:02;;;;;;;1999.90;999.90;;;;;;;-5.26;61.88;100543.06;5029393;27;99791;-71
2021/12/25 00:10:32;;;;;;;1999.90;999.90;;;;;;;-5.30;61.83;100552.31;5028969;27;96777;-71
2021/12/25 00:13:00;;;;;;;1999.90;999.90;;;;;;;-5.31;61.81;100553.09;5026810;27;96755;-71
2021/12/25 00:15:28;;;;;;;1999.90;999.90;;;;;;;-5.31;61.59;100563.47;5029391;27;99076;-71
2021/12/25 00:17:55;;;;;;;1999.90;999.90;;;;;;;-5.32;61.46;100566.81;5022691;27;97768;-71
2021/12/25 00:20:24;;;;;;;1999.90;999.90;;;;;;;-5.33;61.84;100558.94;5025760;27;96718;-71
2021/12/25 00:22:52;;;;;;;1999.90;999.90;;;;;;;-5.33;61.63;100558.94;5030214;27;96981;-71
2021/12/25 00:25:21;;;;;;;1999.90;999.90;;;;;;;-5.35;61.62;100568.28;5042007;27;98495;-71
2021/12/25 00:27:57;;;;;;;1999.90;999.90;;;;;;;-5.38;61.37;100566.34;5029360;27;98694;-71
2021/12/25 00:30:33;;;;;;;1999.90;999.90;;;;;;;-5.37;61.30;100567.25;5008781;28;96660;-71
2021/12/25 00:33:05;;;;;;;1999.90;999.90;;;;;;;-5.43;61.00;100562.50;5021138;27;96822;-71
2021/12/25 00:35:35;;;;;;;1999.90;999.90;;;;;;;-5.46;61.29;100563.91;5025931;27;98197;-71
2021/12/25 00:38:05;;;;;;;1999.90;999.90;;;;;;;-5.53;61.06;100579.75;5026326;27;99734;-71
2021/12/25 00:40:32;;;;;;;1999.90;999.90;;;;;;;-5.55;61.15;100587.41;5012550;28;97146;-71
2021/12/25 00:43:00;;;;;;;1999.90;999.90;;;;;;;-5.55;61.64;100586.50;5029627;27;96858;-71
2021/12/25 00:45:28;;;;;;;1999.90;999.90;;;;;;;-5.56;61.18;100587.28;5012638;27;99341;-71
2021/12/25 00:47:55;;;;;;;1999.90;999.90;;;;;;;-5.61;60.79;100592.09;5022112;27;99333;-71
2021/12/25 00:50:23;;;;;;;1999.90;999.90;;;;;;;-5.64;61.10;100599.63;5023897;27;97016;-69
2021/12/25 00:52:52;;;;;;;1999.90;999.90;;;;;;;-5.66;61.00;100595.06;5028127;27;96980;-68
2021/12/25 00:55:20;;;;;;;1999.90;999.90;;;;;;;-5.67;61.10;100601.97;5007964;27;99631;-70
2021/12/25 00:57:47;;;;;;;1999.90;999.90;;;;;;;-5.64;61.32;100611.66;5025490;27;97020;-70
2021/12/25 01:00:17;;;;;;;1999.90;999.90;;;;;;;-5.62;61.44;100611.03;5025151;27;97622;-69
2021/12/25 01:02:46;;;;;;;1999.90;999.90;;;;;;;-5.63;60.90;100608.31;5028815;27;96862;-69
2021/12/25 01:05:15;;;;;;;1999.90;999.90;;;;;;;-5.65;60.68;100630.59;5011758;28;99497;-70
2021/12/25 01:07:44;;;;;;;1999.90;999.90;;;;;;;-5.66;60.96;100633.94;5029418;27;98085;-70
2021/12/25 01:10:19;;;;;;;1999.90;999.90;;;;;;;-5.71;60.92;100631.00;5012496;28;97603;-70
2021/12/25 01:12:58;;;;;;;1999.90;999.90;;;;;;;-5.69;61.10;100638.88;5008421;27;97167;-71
2021/12/25 01:15:36;;;;;;;1999.90;999.90;;;;;;;-5.71;61.00;100645.63;5012171;28;100009;-70
2021/12/25 01:18:52;;;;;;;1999.90;999.90;;;;;;;-5.72;61.30;100636.06;5008446;28;97617;-71
2021/12/25 01:24:17;;;;;;;1999.90;999.90;;;;;;;-5.75;61.30;100640.97;5011858;28;96894;-70
2021/12/25 01:27:08;;;;;;;1999.90;999.90;;;;;;;-5.75;60.68;100649.66;5009353;28;99810;-71
2021/12/25 01:29:44;;;;;;;1999.90;999.90;;;;;;;-5.74;60.87;100650.56;5007044;27;100432;-70
2021/12/25 01:35:38;;;;;;;1999.90;999.90;;;;;;;-5.74;61.29;100671.28;4985533;27;96918;-71
2021/12/25 01:38:50;;;;;;;1999.90;999.90;;;;;;;-5.75;60.94;100660.00;5026390;27;97462;-71
2021/12/25 01:47:51;;;;;;;1999.90;999.90;;;;;;;-5.93;60.88;100669.75;5018856;27;97673;-70
2021/12/25 01:50:22;;;;;;;1999.90;999.90;;;;;;;-5.98;60.84;100667.56;5006968;27;100238;-71
2021/12/25 01:52:50;;;;;;;1999.90;999.90;;;;;;;-6.00;61.32;100662.25;5010843;28;96994;-71
2021/12/25 01:55:21;;;;;;;1999.90;999.90;;;;;;;-6.01;61.19;100660.44;5007333;27;97145;-71
2021/12/25 01:57:49;;;;;;;1999.90;999.90;;;;;;;-5.98;60.90;100673.66;5027522;27;96875;-71
2021/12/25 02:00:23;;;;;;;1999.90;999.90;;;;;;;-6.01;61.16;100670.78;5008756;27;100430;-70
2021/12/25 02:02:52;;;;;;;1999.90;999.90;;;;;;;-6.00;61.22;100672.63;5021666;27;97139;-71
2021/12/25 02:05:30;;;;;;;1999.90;999.90;;;;;;;-5.98;61.11;100680.50;5011737;28;96559;-71
2021/12/25 02:08:19;;;;;;;1999.90;999.90;;;;;;;-5.99;60.67;100689.03;5009040;28;97363;-70
2021/12/25 02:10:47;;;;;;;1999.90;999.90;;;;;;;-6.01;61.03;100683.75;5010521;28;99826;-70
2021/12/25 02:13:16;;;;;;;1999.90;999.90;;;;;;;-6.01;61.13;100686.31;5004785;28;100392;-71
2021/12/25 02:15:48;;;;;;;1999.90;999.90;;;;;;;-6.01;60.64;100683.75;5027319;27;97162;-70
2021/12/25 02:18:25;;;;;;;1999.90;999.90;;;;;;;-5.99;60.85;100684.78;5011029;28;97563;-71
2021/12/25 02:21:10;;;;;;;1999.90;999.90;;;;;;;-6.03;60.28;100689.59;5009015;28;100351;-71
2021/12/25 02:23:52;;;;;;;1999.90;999.90;;;;;;;-6.07;60.62;100684.91;5012688;27;97731;-70
2021/12/25 02:26:21;;;;;;;1999.90;999.90;;;;;;;-6.09;61.03;100687.38;5027839;27;96881;-71
2021/12/25 02:28:50;;;;;;;1999.90;999.90;;;;;;;-6.13;60.98;100690.47;5009787;27;96932;-71
2021/12/25 02:31:18;;;;;;;1999.90;999.90;;;;;;;-6.13;60.70;100680.13;5010149;28;99601;-71
2021/12/25 02:33:46;;;;;;;1999.90;999.90;;;;;;;-6.18;60.79;100691.78;5015347;27;100060;-71
2021/12/25 02:36:16;;;;;;;1999.90;999.90;;;;;;;-6.19;61.12;100695.13;5020609;27;96766;-71
2021/12/25 02:38:47;;;;;;;1999.90;999.90;;;;;;;-6.25;60.92;100692.00;5026144;27;97499;-71
2021/12/25 02:41:16;;;;;;;1999.90;999.90;;;;;;;-6.26;61.15;100692.78;5009395;27;99196;-71
2021/12/25 02:43:46;;;;;;;1999.90;999.90;;;;;;;-6.25;61.03;100697.19;5028152;27;97511;-71
2021/12/25 02:46:19;;;;;;;1999.90;999.90;;;;;;;-6.24;61.21;100691.25;5011435;27;97496;-70
2021/12/25 02:48:47;;;;;;;1999.90;999.90;;;;;;;-6.22;60.68;100693.97;5027290;27;97436;-71
2021/12/25 02:51:16;;;;;;;1999.90;999.90;;;;;;;-6.23;60.66;100695.63;5007856;28;99401;-71
2021/12/25 02:53:44;;;;;;;1999.90;999.90;;;;;;;-6.26;60.96;100697.97;5005088;28;100729;-70
2021/12/25 02:56:12;;;;;;;1999.90;999.90;;;;;;;-6.29;60.66;100696.81;5010564;28;96893;-70
2021/12/25 02:58:43;;;;;;;1999.90;999.90;;;;;;;-6.31;60.94;100703.53;5010619;28;97149;-71
2021/12/25 03:01:13;;;;;;;1999.90;999.90;;;;;;;-6.30;60.80;100700.16;5007424;28;100359;-71
2021/12/25 03:03:42;;;;;;;1999.90;999.90;;;;;;;-6.28;61.08;100704.69;5002603;28;98896;-71
2021/12/25 03:06:12;;;;;;;1999.90;999.90;;;;;;;-6.27;61.08;100706.50;5006260;28;97236;-71
2021/12/25 03:08:44;;;;;;;1999.90;999.90;;;;;;;-6.27;60.96;100709.09;5006639;27;97251;-70
2021/12/25 03:11:13;;;;;;;1999.90;999.90;;;;;;;-6.26;60.82;100708.31;5027326;27;97642;-71
2021/12/25 03:13:56;;;;;;;1999.90;999.90;;;;;;;-6.26;60.96;100704.81;5007894;27;100804;-70
2021/12/25 03:16:27;;;;;;;1999.90;999.90;;;;;;;-6.28;60.52;100711.53;5010279;28;97849;-70
2021/12/25 03:18:57;;;;;;;1999.90;999.90;;;;;;;-6.32;60.38;100712.09;5005273;28;97812;-70
2021/12/25 03:21:24;;;;;;;1999.90;999.90;;;;;;;-6.36;60.60;100715.19;5024423;27;98884;-70
2021/12/25 03:23:53;;;;;;;1999.90;999.90;;;;;;;-6.41;60.94;100716.44;5026736;27;98036;-70
2021/12/25 03:26:22;;;;;;;1999.90;999.90;;;;;;;-6.49;60.55;100713.22;5011096;28;96880;-70
2021/12/25 03:28:52;;;;;;;1999.90;999.90;;;;;;;-6.51;60.36;100719.94;5024841;27;96804;-70
2021/12/25 03:31:21;;;;;;;1999.90;999.90;;;;;;;-6.53;61.04;100717.97;5025852;27;98941;-70
2021/12/25 03:33:53;;;;;;;1999.90;999.90;;;;;;;-6.55;60.28;100712.66;5028495;27;98005;-70
2021/12/25 03:36:22;;;;;;;1999.90;999.90;;;;;;;-6.57;60.45;100718.47;5024992;27;97455;-70
2021/12/25 03:38:50;;;;;;;1999.90;999.90;;;;;;;-6.60;60.71;100731.16;5028212;27;97171;-70
2021/12/25 03:41:20;;;;;;;1999.90;999.90;;;;;;;-6.58;60.70;100722.75;5012841;28;99579;-70
2021/12/25 03:43:48;;;;;;;1999.90;999.90;;;;;;;-6.61;60.89;100724.13;5027038;27;97676;-70
2021/12/25 03:46:18;;;;;;;1999.90;999.90;;;;;;;-6.65;60.63;100722.09;5026918;27;98343;-70
2021/12/25 03:49:03;;;;;;;1999.90;999.90;;;;;;;-6.68;60.79;100733.06;5031347;27;96535;-70
2021/12/25 03:59:58;;;;;;;1999.90;999.90;;;;;;;-6.82;60.65;100738.72;5007401;27;96993;-70
2021/12/25 04:02:33;;;;;;;1999.90;999.90;;;;;;;-6.83;60.72;100744.63;5027541;27;97120;-70
2021/12/25 04:05:04;;;;;;;1999.90;999.90;;;;;;;-6.86;60.83;100744.38;5016032;27;98751;-70
2021/12/25 04:10:22;;;;;;;1999.90;999.90;;;;;;;-6.86;60.76;100744.38;4995074;28;97243;-71
2021/12/25 04:12:51;;;;;;;1999.90;999.90;;;;;;;-6.85;61.07;100751.34;5023869;27;98665;-71
2021/12/25 04:15:18;;;;;;;1999.90;999.90;;;;;;;-6.85;60.62;100753.06;5041616;27;100772;-71
2021/12/25 04:17:46;;;;;;;1999.90;999.90;;;;;;;-6.86;60.60;100754.72;5011565;28;97581;-70
2021/12/25 04:20:14;;;;;;;1999.90;999.90;;;;;;;-6.85;60.65;100756.50;5008211;27;96772;-70
2021/12/25 04:22:46;;;;;;;1999.90;999.90;;;;;;;-6.84;60.72;100747.09;5028589;27;98737;-70
2021/12/25 04:25:19;;;;;;;1999.90;999.90;;;;;;;-6.82;60.81;100751.63;5028483;27;96865;-70
2021/12/25 04:27:47;;;;;;;1999.90;999.90;;;;;;;-6.82;60.38;100750.72;5029178;27;96922;-70
2021/12/25 04:30:26;;;;;;;1999.90;999.90;;;;;;;-6.84;60.26;100753.19;5025655;27;96816;-70
2021/12/25 04:50:01;;;;;;;1999.90;999.90;;;;;;;-7.12;60.36;100759.22;4998115;27;97200;-70
2021/12/25 05:03:52;;;;;;;1999.90;999.90;;;;;;;-7.15;60.50;100779.66;5006898;27;96887;-70
2021/12/25 05:06:25;;;;;;;1999.90;999.90;;;;;;;-7.15;60.41;100779.66;5003607;27;99315;-70
2021/12/25 05:08:54;;;;;;;1999.90;999.90;;;;;;;-7.15;60.41;100779.66;5011376;27;100461;-70
2021/12/25 05:11:23;;;;;;;1999.90;999.90;;;;;;;-7.17;60.35;100787.25;5019892;27;98489;-71
2021/12/25 05:13:54;;;;;;;1999.90;999.90;;;;;;;-7.19;60.36;100778.47;5028904;27;97105;-70
2021/12/25 05:16:37;;;;;;;1999.90;999.90;;;;;;;-7.20;60.44;100786.09;5011359;28;99204;-70
2021/12/25 05:19:08;;;;;;;1999.90;999.90;;;;;;;-7.22;60.41;100793.72;5043194;27;98031;-70
2021/12/25 05:21:35;;;;;;;1999.90;999.90;;;;;;;-7.25;60.52;100792.47;5010069;28;96895;-70
2021/12/25 05:24:05;;;;;;;1999.90;999.90;;;;;;;-7.26;60.74;100796.78;5024673;27;97164;-70
2021/12/25 05:26:40;;;;;;;1999.90;999.90;;;;;;;-7.26;60.34;100795.84;5026306;27;98395;-70
2021/12/25 05:29:10;;;;;;;1999.90;999.90;;;;;;;-7.28;60.79;100797.38;5008106;28;99951;-70
2021/12/25 05:31:38;;;;;;;1999.90;999.90;;;;;;;-7.29;60.56;100799.06;5025558;27;97066;-70
2021/12/25 05:34:37;;;;;;;1999.90;999.90;;;;;;;-7.32;60.54;100795.28;5010201;27;97733;-70
2021/12/25 05:37:22;;;;;;;1999.90;999.90;;;;;;;-7.34;61.00;100794.22;5020438;27;98328;-70
2021/12/25 05:40:14;;;;;;;1999.90;999.90;;;;;;;-7.35;60.79;100795.00;5006495;27;99429;-70
2021/12/25 05:42:47;;;;;;;1999.90;999.90;;;;;;;-7.36;60.88;100795.81;5024259;27;96983;-70
2021/12/25 05:45:15;;;;;;;1999.90;999.90;;;;;;;-7.36;60.72;100803.56;5023132;27;96861;-71
2021/12/25 05:47:55;;;;;;;1999.90;999.90;;;;;;;-7.38;60.67;100802.50;5006860;27;98752;-70
2021/12/25 05:50:47;;;;;;;1999.90;999.90;;;;;;;-7.42;60.60;100795.22;5027520;27;99062;-70
2021/12/25 05:53:27;;;;;;;1999.90;999.90;;;;;;;-7.44;60.49;100809.69;5012444;28;98640;-70
2021/12/25 05:56:15;;;;;;;1999.90;999.90;;;;;;;-7.47;60.61;100805.13;5022147;27;96880;-70
2021/12/25 05:59:14;;;;;;;1999.90;999.90;;;;;;;-7.50;60.33;100812.59;5010426;27;99073;-70
2021/12/25 06:01:56;;;;;;;1999.90;999.90;;;;;;;-7.51;60.50;100815.06;5012037;28;99433;-70
2021/12/25 06:04:26;;;;;;;1999.90;999.90;;;;;;;-7.52;60.60;100820.97;5005995;27;96798;-70
2021/12/25 06:06:55;;;;;;;1999.90;999.90;;;;;;;-7.56;60.40;100818.91;5026677;27;97113;-70
2021/12/25 06:09:23;;;;;;;1999.90;999.90;;;;;;;-7.60;60.79;100817.66;5006841;27;99448;-70
2021/12/25 06:11:51;;;;;;;1999.90;999.90;;;;;;;-7.59;60.45;100822.09;5023258;27;100069;-70
2021/12/25 06:14:20;;;;;;;1999.90;999.90;;;;;;;-7.58;60.79;100835.94;5011333;27;97136;-70
2021/12/25 06:17:08;;;;;;;1999.90;999.90;;;;;;;-7.63;60.69;100832.91;5041867;27;97384;-70
2021/12/25 06:19:39;;;;;;;1999.90;999.90;;;;;;;-7.65;60.49;100833.50;5009919;28;99983;-70
2021/12/25 06:22:22;;;;;;;1999.90;999.90;;;;;;;-7.68;60.67;100836.72;5024839;27;99522;-70
2021/12/25 06:25:09;;;;;;;1999.90;999.90;;;;;;;-7.72;60.59;100836.28;5024323;27;96647;-70
2021/12/25 06:27:57;;;;;;;1999.90;999.90;;;;;;;-7.74;60.79;100836.16;5012048;28;96608;-70
2021/12/25 06:30:45;;;;;;;1999.90;999.90;;;;;;;-7.71;60.56;100840.72;5009124;27;100301;-70
2021/12/25 06:33:22;;;;;;;1999.90;999.90;;;;;;;-7.72;60.78;100839.78;5005038;28;98659;-70
2021/12/25 06:36:09;;;;;;;1999.90;999.90;;;;;;;-7.72;60.66;100837.22;5021941;27;96869;-70
2021/12/25 06:39:02;;;;;;;1999.90;999.90;;;;;;;-7.71;60.64;100840.72;4986875;27;96893;-70
2021/12/25 06:41:34;;;;;;;1999.90;999.90;;;;;;;-7.73;60.64;100844.81;5022020;27;98779;-70
2021/12/25 06:44:03;;;;;;;1999.90;999.90;;;;;;;-7.76;60.62;100849.72;5023333;27;99019;-70
2021/12/25 06:46:44;;;;;;;1999.90;999.90;;;;;;;-7.75;60.75;100856.69;5005652;28;98068;-69
2021/12/25 06:49:12;;;;;;;1999.90;999.90;;;;;;;-7.77;60.71;100853.94;5024560;27;96816;-70
2021/12/25 06:52:00;;;;;;;1999.90;999.90;;;;;;;-7.76;60.65;100860.91;5024050;27;99730;-70
2021/12/25 06:54:51;;;;;;;1999.90;999.90;;;;;;;-7.76;60.76;100863.50;5026250;27;97553;-70
2021/12/25 06:57:22;;;;;;;1999.90;999.90;;;;;;;-7.75;60.72;100857.59;5025159;27;97157;-71
2021/12/25 06:59:49;;;;;;;1999.90;999.90;;;;;;;-7.72;60.66;100869.88;5009979;28;98586;-71
2021/12/25 07:02:18;;;;;;;1999.90;999.90;;;;;;;-7.73;60.49;100870.66;5010664;28;98461;-71
2021/12/25 07:05:05;;;;;;;1999.90;999.90;;;;;;;-7.77;60.85;100879.78;5023969;27;99463;-70
2021/12/25 07:07:52;;;;;;;1999.90;999.90;;;;;;;-7.79;60.67;100880.38;5038254;27;96804;-70
2021/12/25 07:10:28;;;;;;;1999.90;999.90;;;;;;;-7.80;60.52;100878.59;5009732;28;97162;-70
2021/12/25 07:13:18;;;;;;;1999.90;999.90;;;;;;;-7.84;60.51;100877.38;5024414;27;99635;-71
2021/12/25 07:16:00;;;;;;;1999.90;999.90;;;;;;;-7.83;60.53;100867.94;5012041;28;99727;-70
2021/12/25 07:18:51;;;;;;;1999.90;999.90;;;;;;;-7.82;60.60;100870.69;5010080;28;96855;-70
2021/12/25 07:21:35;;;;;;;1999.90;999.90;;;;;;;-7.82;60.75;100885.28;5020176;27;96978;-70
2021/12/25 07:24:21;;;;;;;1999.90;999.90;;;;;;;-7.84;60.52;100877.38;5022532;27;97910;-70
2021/12/25 07:27:05;;;;;;;1999.90;999.90;;;;;;;-7.87;60.66;100876.19;5023002;27;97855;-70
2021/12/25 07:29:49;;;;;;;1999.90;999.90;;;;;;;-7.91;60.48;100875.00;5039901;27;96840;-70
2021/12/25 07:32:17;;;;;;;1999.90;999.90;;;;;;;-7.92;60.63;100869.66;5024066;27;96831;-69
2021/12/25 07:34:46;;;;;;;1999.90;999.90;;;;;;;-7.95;60.59;100878.03;5020579;27;99876;-70
2021/12/25 07:37:14;;;;;;;1999.90;999.90;;;;;;;-7.95;60.66;100882.28;5025574;27;100941;-70
2021/12/25 07:39:42;;;;;;;1999.90;999.90;;;;;;;-7.95;60.55;100884.88;5028061;27;96912;-69
2021/12/25 07:42:12;;;;;;;1999.90;999.90;;;;;;;-7.98;60.61;100888.06;5026718;27;96723;-70
2021/12/25 07:45:15;;;;;;;1999.90;999.90;;;;;;;-8.02;60.78;100892.00;5002663;27;97732;-70
2021/12/25 07:47:49;;;;;;;1999.90;999.90;;;;;;;-8.01;60.40;100888.69;5025678;27;97682;-69
2021/12/25 07:50:16;;;;;;;1999.90;999.90;;;;;;;-8.03;60.74;100895.38;5027142;27;96850;-70
2021/12/25 07:52:44;;;;;;;1999.90;999.90;;;;;;;-8.03;60.64;100899.63;5025070;27;96967;-70
2021/12/25 07:55:12;;;;;;;1999.90;999.90;;;;;;;-8.04;60.43;100913.31;5021053;27;98990;-71
2021/12/25 07:57:41;;;;;;;1999.90;999.90;;;;;;;-8.06;60.56;100900.25;5024667;27;98712;-70
2021/12/25 08:00:11;;;;;;;1999.90;999.90;;;;;;;-8.07;60.52;100906.16;5025574;27;96744;-70
2021/12/25 08:02:39;;;;;;;1999.90;999.90;;;;;;;-8.08;60.65;100904.38;5024558;27;97135;-70
2021/12/25 08:05:08;;;;;;;1999.90;999.90;;;;;;;-8.06;60.52;100909.66;5026679;27;98502;-69
2021/12/25 08:07:36;;;;;;;1999.90;999.90;;;;;;;-8.08;60.31;100909.53;5022769;28;97553;-70
2021/12/25 08:10:13;;;;;;;1999.90;999.90;;;;;;;-8.08;60.69;100904.38;5027663;27;96776;-70
2021/12/25 08:12:45;;;;;;;1999.90;999.90;;;;;;;-8.09;60.34;100904.19;5024965;27;96770;-70
2021/12/25 08:15:14;;;;;;;1999.90;999.90;;;;;;;-8.08;60.46;100914.69;5023734;27;97578;-70
2021/12/25 08:17:43;;;;;;;1999.90;999.90;;;;;;;-8.08;59.98;100918.94;5027714;27;100923;-70
2021/12/25 08:20:30;;;;;;;1999.90;999.90;;;;;;;-8.10;60.45;100916.22;5025582;27;97112;-70
2021/12/25 08:23:16;;;;;;;1999.90;999.90;;;;;;;-8.09;60.21;100924.84;5028500;27;97401;-70
2021/12/25 08:26:17;;;;;;;1999.90;999.90;;;;;;;-8.08;60.35;100930.19;4991220;28;99266;-70
2021/12/25 08:28:52;;;;;;;1999.90;999.90;;;;;;;-8.06;60.26;100925.16;5025371;27;97629;-70
2021/12/25 08:31:38;;;;;;;1999.90;999.90;;;;;;;-8.04;60.36;100936.53;5028065;27;97520;-70
2021/12/25 08:34:24;;;;;;;1999.90;999.90;;;;;;;-8.03;60.31;100928.03;5028127;27;97304;-70
2021/12/25 08:37:02;;;;;;;1999.90;999.90;;;;;;;-8.01;60.22;100935.16;5009817;27;99414;-71
2021/12/25 08:39:30;;;;;;;1999.90;999.90;;;;;;;-8.00;60.15;100942.13;5024153;27;99664;-70
2021/12/25 08:42:03;;;;;;;1999.90;999.90;;;;;;;-7.95;60.26;100936.50;5013257;28;97702;-70
2021/12/25 08:44:36;;;;;;;1999.90;999.90;;;;;;;-7.94;60.26;100935.72;5027546;27;98655;-70
2021/12/25 08:47:06;;;;;;;1999.90;999.90;;;;;;;-7.92;60.14;100935.13;5026618;27;99731;-70
2021/12/25 08:49:35;;;;;;;1999.90;999.90;;;;;;;-7.88;59.91;100941.50;5027143;27;98664;-70
2021/12/25 08:52:06;;;;;;;1999.90;999.90;;;;;;;-7.88;59.91;100938.91;5027020;27;96982;-70
2021/12/25 08:54:34;;;;;;;1999.90;999.90;;;;;;;-7.85;60.02;100949.56;5027694;27;96594;-70
2021/12/25 08:57:02;;;;;;;1999.90;999.90;;;;;;;-7.84;59.91;100943.59;5027256;27;97888;-70
2021/12/25 08:59:33;;;;;;;1999.90;999.90;;;;;;;-7.82;59.71;100949.84;5028497;27;100888;-70
2021/12/25 09:02:03;;;;;;;1999.90;999.90;;;;;;;-7.79;59.94;100947.53;5026068;27;96772;-70
2021/12/25 09:04:31;;;;;;;1999.90;999.90;;;;;;;-7.75;59.85;100944.47;5028571;27;97154;-70
2021/12/25 09:06:59;;;;;;;1999.90;999.90;;;;;;;-7.74;59.91;100951.44;5025002;27;98078;-70
2021/12/25 09:09:27;;;;;;;1999.90;999.90;;;;;;;-7.71;59.81;100956.94;5024911;27;98540;-70
2021/12/25 09:11:54;;;;;;;1999.90;999.90;;;;;;;-7.69;59.83;100961.47;5026100;27;97393;-70
2021/12/25 09:14:22;;;;;;;1999.90;999.90;;;;;;;-7.65;59.75;100965.25;5023419;27;97704;-70
2021/12/25 09:16:52;;;;;;;1999.90;999.90;;;;;;;-7.63;59.55;100968.88;5022974;27;98442;-70
2021/12/25 09:19:20;;;;;;;1999.90;999.90;;;;;;;-7.60;59.44;100962.34;5026742;27;97945;-70
2021/12/25 09:21:47;;;;;;;1999.90;999.90;;;;;;;-7.58;59.37;100963.41;5008948;27;96867;-70
2021/12/25 09:24:16;;;;;;;1999.90;999.90;;;;;;;-7.57;59.27;100969.47;5024344;27;97036;-70
2021/12/25 09:26:44;;;;;;;1999.90;999.90;;;;;;;-7.54;59.65;100974.94;5023638;27;98580;-70
2021/12/25 09:29:11;;;;;;;1999.90;999.90;;;;;;;-7.56;59.15;100979.94;5024365;27;100546;-70
2021/12/25 09:31:39;;;;;;;1999.90;999.90;;;;;;;-7.55;59.33;100975.72;5025093;27;97318;-69
2021/12/25 09:34:08;;;;;;;1999.90;999.90;;;;;;;-7.54;59.44;100988.75;5026185;27;96764;-70
2021/12/25 09:36:36;;;;;;;1999.90;999.90;;;;;;;-7.54;59.22;100983.59;5021189;27;97818;-70
2021/12/25 09:39:05;;;;;;;1999.90;999.90;;;;;;;-7.53;59.14;100990.59;5023603;27;97638;-70
2021/12/25 09:41:34;;;;;;;1999.90;999.90;;;;;;;-7.52;59.30;100994.06;5026348;27;96762;-70
2021/12/25 09:44:03;;;;;;;1999.90;999.90;;;;;;;-7.50;59.31;100998.63;5029005;27;97211;-69
2021/12/25 09:46:31;;;;;;;1999.90;999.90;;;;;;;-7.49;59.03;100996.97;5027889;27;97530;-70
2021/12/25 09:48:59;;;;;;;1999.90;999.90;;;;;;;-7.49;59.01;100991.81;5028723;27;99386;-70
2021/12/25 09:51:28;;;;;;;1999.90;999.90;;;;;;;-7.47;59.06;100998.91;5026305;27;96876;-70
2021/12/25 09:53:57;;;;;;;1999.90;999.90;;;;;;;-7.46;58.97;101002.41;5026976;27;97183;-70
2021/12/25 09:56:25;;;;;;;1999.90;999.90;;;;;;;-7.45;58.96;100993.88;5019898;27;98977;-70
2021/12/25 09:58:53;;;;;;;1999.90;999.90;;;;;;;-7.44;59.00;100990.56;5021399;27;97538;-69
2021/12/25 10:01:35;;;;;;;1999.90;999.90;;;;;;;-7.48;58.54;100993.59;5022604;27;96979;-70
2021/12/25 10:04:04;;;;;;;1999.90;999.90;;;;;;;-7.46;59.07;100993.00;5020196;27;96865;-70
2021/12/25 10:06:34;;;;;;;1999.90;999.90;;;;;;;-7.44;59.23;100995.72;5024253;27;100966;-69
2021/12/25 10:09:17;;;;;;;1999.90;999.90;;;;;;;-7.45;58.81;100993.88;5026144;27;98818;-69
2021/12/25 10:12:00;;;;;;;1999.90;999.90;;;;;;;-7.43;58.81;100993.28;5023231;27;97130;-69
2021/12/25 10:14:32;;;;;;;1999.90;999.90;;;;;;;-7.40;58.91;101001.31;5025227;27;97797;-69
2021/12/25 10:17:14;;;;;;;1999.90;999.90;;;;;;;-7.44;58.68;101006.06;5028744;27;99667;-69
2021/12/25 10:19:42;;;;;;;1999.90;999.90;;;;;;;-7.47;58.83;101008.38;5027725;27;97763;-69
2021/12/25 10:22:12;;;;;;;1999.90;999.90;;;;;;;-7.47;58.91;101001.50;5028682;27;97193;-69
2021/12/25 10:24:51;;;;;;;1999.90;999.90;;;;;;;-7.42;59.22;101001.94;5025758;27;98238;-70
2021/12/25 10:27:21;;;;;;;1999.90;999.90;;;;;;;-7.43;59.02;100997.53;5022637;27;98796;-69
2021/12/25 10:29:49;;;;;;;1999.90;999.90;;;;;;;-7.45;58.93;100994.81;5025995;27;99365;-69
2021/12/25 10:32:20;;;;;;;1999.90;999.90;;;;;;;-7.44;58.79;100998.31;5006784;27;96704;-69
2021/12/25 10:34:49;;;;;;;1999.90;999.90;;;;;;;-7.43;59.14;101008.78;5019151;27;97130;-69
2021/12/25 10:37:20;;;;;;;1999.90;999.90;;;;;;;-7.45;58.97;100992.22;5021014;27;99544;-69
2021/12/25 10:39:49;;;;;;;1999.90;999.90;;;;;;;-7.44;59.15;100991.47;5026163;27;99813;-69
2021/12/25 10:42:20;;;;;;;1999.90;999.90;;;;;;;-7.41;58.89;100991.75;5027059;27;96961;-72
2021/12/25 10:44:50;;;;;;;1999.90;999.90;;;;;;;-7.39;58.96;100989.31;5024864;27;96918;-71
2021/12/25 10:47:20;;;;;;;1999.90;999.90;;;;;;;-7.37;58.72;100987.78;5018221;27;100857;-70
2021/12/25 10:49:49;;;;;;;1999.90;999.90;;;;;;;-7.37;58.18;100988.72;5024220;27;98637;-70
2021/12/25 10:52:22;;;;;;;1999.90;999.90;;;;;;;-7.41;58.86;100980.50;5023311;27;97324;-69
2021/12/25 10:54:52;;;;;;;1999.90;999.90;;;;;;;-7.44;58.66;100975.97;5035924;27;98663;-70
2021/12/25 10:57:35;;;;;;;1999.90;999.90;;;;;;;-7.49;58.29;100978.88;5023400;27;99085;-70
2021/12/25 11:00:06;;;;;;;1999.90;999.90;;;;;;;-7.48;58.93;100984.19;5022713;27;98854;-70
2021/12/25 11:02:36;;;;;;;1999.90;999.90;;;;;;;-7.44;58.88;100987.97;5024368;27;97289;-70
2021/12/25 11:05:16;;;;;;;1999.90;999.90;;;;;;;-7.44;58.79;100985.38;5024977;27;97637;-70
2021/12/25 11:07:45;;;;;;;1999.90;999.90;;;;;;;-7.38;58.68;100980.81;5022957;27;98779;-70
2021/12/25 11:10:15;;;;;;;1999.90;999.90;;;;;;;-7.37;58.40;100973.19;5023386;27;96946;-70
2021/12/25 11:12:43;;;;;;;1999.90;999.90;;;;;;;-7.35;59.13;100975.91;5020641;27;96918;-69
2021/12/25 11:15:14;;;;;;;1999.90;999.90;;;;;;;-7.31;58.72;100985.78;5024080;27;97324;-70
2021/12/25 11:17:43;;;;;;;1999.90;999.90;;;;;;;-7.28;58.33;100978.31;5022551;27;100727;-70
2021/12/25 11:20:18;;;;;;;1999.90;999.90;;;;;;;-7.28;59.01;100968.91;5025763;27;98780;-70
2021/12/25 11:22:50;;;;;;;1999.90;999.90;;;;;;;-7.25;58.69;100964.00;5024362;27;96759;-70
2021/12/25 11:25:20;;;;;;;1999.90;999.90;;;;;;;-7.20;58.94;100961.88;5025143;27;97106;-70
2021/12/25 11:27:50;;;;;;;1999.90;999.90;;;;;;;-7.14;58.61;100953.00;5023906;27;98526;-70
2021/12/25 11:30:20;;;;;;;1999.90;999.90;;;;;;;-7.14;58.62;100952.06;5022318;27;98941;-72
2021/12/25 11:32:49;;;;;;;1999.90;999.90;;;;;;;-7.12;58.51;100955.72;5022508;27;96774;-69
2021/12/25 11:35:18;;;;;;;1999.90;999.90;;;;;;;-7.10;58.40;100967.09;5025055;27;96839;-70
2021/12/25 11:37:50;;;;;;;1999.90;999.90;;;;;;;-7.10;58.71;100965.44;5025915;27;99251;-71
2021/12/25 11:40:20;;;;;;;1999.90;999.90;;;;;;;-7.10;58.11;100967.09;5021102;27;99364;-70
2021/12/25 11:42:52;;;;;;;1999.90;999.90;;;;;;;-7.13;58.13;100969.41;5025363;27;96711;-70
2021/12/25 11:45:23;;;;;;;1999.90;999.90;;;;;;;-7.15;58.42;100960.59;5027316;27;96740;-72
2021/12/25 11:47:53;;;;;;;1999.90;999.90;;;;;;;-7.15;58.28;100960.59;5027212;27;100247;-72
2021/12/25 11:50:24;;;;;;;1999.90;999.90;;;;;;;-7.16;58.11;100963.97;5029659;27;97263;-71
2021/12/25 11:53:07;;;;;;;1999.90;999.90;;;;;;;-7.19;57.59;100971.41;5028492;27;96811;-72
2021/12/25 11:56:02;;;;;;;1999.90;999.90;;;;;;;-7.22;57.95;100971.16;5029645;27;96808;-72
2021/12/25 11:58:44;;;;;;;1999.90;999.90;;;;;;;-7.28;57.64;100974.06;5009290;28;99667;-70
2021/12/25 12:01:17;;;;;;;1999.90;999.90;;;;;;;-7.26;58.33;100972.53;5027388;27;98550;-70
2021/12/25 12:03:47;;;;;;;1999.90;999.90;;;;;;;-7.20;58.39;100972.19;5030322;27;96870;-71
2021/12/25 12:06:15;;;;;;;1999.90;999.90;;;;;;;-7.19;58.67;100969.75;5027941;27;96795;-71